createdAt,value
2024-02-23T00:02:25.953Z,3.40
2024-02-23T00:04:52.577Z,3.45
2024-02-23T00:07:19.056Z,3.38
2024-02-23T00:09:45.542Z,3.35
2024-02-23T00:12:12.249Z,3.28
2024-02-23T00:14:39.228Z,3.55
2024-02-23T00:17:06.007Z,2.95
2024-02-23T00:19:32.885Z,2.95
2024-02-23T00:22:00.572Z,2.90
2024-02-23T00:24:27.553Z,2.80
2024-02-23T00:26:54.233Z,2.88
2024-02-23T00:29:21.125Z,2.78
2024-02-23T00:31:47.903Z,2.70
2024-02-23T00:34:15.198Z,2.97
2024-02-23T00:36:42.641Z,2.58
2024-02-23T00:39:09.600Z,2.50
2024-02-23T00:41:36.836Z,2.25
2024-02-23T00:44:04.505Z,2.40
2024-02-23T00:46:31.359Z,2.25
2024-02-23T00:48:57.968Z,1.90
2024-02-23T00:51:24.611Z,2.25
2024-02-23T00:53:51.145Z,1.90
2024-02-23T00:56:17.648Z,2.10
2024-02-23T00:58:44.272Z,2.03
2024-02-23T01:01:10.915Z,1.92
2024-02-23T01:03:37.572Z,1.83
2024-02-23T01:06:04.484Z,1.52
2024-02-23T01:08:31.117Z,1.90
2024-02-23T01:10:57.689Z,2.00
2024-02-23T01:13:24.276Z,1.60
2024-02-23T01:15:50.883Z,1.73
2024-02-23T01:18:17.613Z,1.52
2024-02-23T01:20:44.258Z,1.40
2024-02-23T01:23:10.761Z,1.63
2024-02-23T01:25:38.529Z,1.70
2024-02-23T01:28:05.471Z,1.80
2024-02-23T01:30:31.961Z,1.85
2024-02-23T01:32:58.673Z,1.42
2024-02-23T01:35:25.332Z,1.50
2024-02-23T01:37:51.914Z,1.30
2024-02-23T01:40:18.477Z,1.33
2024-02-23T01:42:44.985Z,1.38
2024-02-23T01:45:11.501Z,1.42
2024-02-23T01:47:39.070Z,1.35
2024-02-23T01:50:07.736Z,1.50
2024-02-23T01:52:34.351Z,1.05
2024-02-23T01:55:02.032Z,1.08
2024-02-23T01:57:40.338Z,1.30
2024-02-23T02:00:18.919Z,1.10
2024-02-23T02:02:46.036Z,1.17
2024-02-23T02:05:12.738Z,1.10
2024-02-23T02:07:41.635Z,1.00
2024-02-23T02:10:09.933Z,1.20
2024-02-23T02:12:36.928Z,0.90
2024-02-23T02:15:04.674Z,1.10
2024-02-23T02:17:34.124Z,1.00
2024-02-23T02:20:05.614Z,1.20
2024-02-23T02:22:34.481Z,0.90
2024-02-23T02:25:00.956Z,1.00
2024-02-23T02:27:27.750Z,0.80
2024-02-23T02:29:54.280Z,1.08
2024-02-23T02:32:20.839Z,0.90
2024-02-23T02:34:47.456Z,0.90
2024-02-23T02:37:14.072Z,0.88
2024-02-23T02:39:40.678Z,1.00
2024-02-23T02:42:07.519Z,0.65
2024-02-23T02:44:33.996Z,0.93
2024-02-23T02:47:00.563Z,0.90
2024-02-23T02:49:27.117Z,0.80
2024-02-23T02:51:53.708Z,0.90
2024-02-23T02:54:20.208Z,0.90
2024-02-23T02:56:49.054Z,0.80
2024-02-23T02:59:15.571Z,1.00
2024-02-23T03:01:42.085Z,0.80
2024-02-23T03:04:09.325Z,0.73
2024-02-23T03:06:36.032Z,0.68
2024-02-23T03:09:03.405Z,0.90
2024-02-23T03:11:30.001Z,0.80
2024-02-23T03:13:56.605Z,0.85
2024-02-23T03:16:27.219Z,0.70
2024-02-23T03:18:55.373Z,0.80
2024-02-23T03:21:21.847Z,0.82
2024-02-23T03:23:48.317Z,0.93
2024-02-23T03:26:17.193Z,0.88
2024-02-23T03:28:44.325Z,0.77
2024-02-23T03:31:10.820Z,0.82
2024-02-23T03:33:37.610Z,0.70
2024-02-23T03:36:04.920Z,0.90
2024-02-23T03:38:32.878Z,1.02
2024-02-23T03:40:59.732Z,0.82
2024-02-23T03:43:26.245Z,0.80
2024-02-23T03:45:52.819Z,0.95
2024-02-23T03:48:19.534Z,0.70
2024-02-23T03:50:47.198Z,0.63
2024-02-23T03:53:13.819Z,0.57
2024-02-23T03:55:40.314Z,0.75
2024-02-23T03:58:07.391Z,0.60
2024-02-23T04:00:34.022Z,0.70
2024-02-23T04:03:00.578Z,0.60
2024-02-23T04:05:27.224Z,0.80
2024-02-23T04:07:53.832Z,0.45
2024-02-23T04:10:20.887Z,0.60
2024-02-23T04:12:48.421Z,0.60
2024-02-23T04:15:15.007Z,0.77
2024-02-23T04:17:41.804Z,0.85
2024-02-23T04:20:10.996Z,0.70
2024-02-23T04:22:38.454Z,0.70
2024-02-23T04:25:06.191Z,0.70
2024-02-23T04:27:32.919Z,0.68
2024-02-23T04:29:59.496Z,0.68
2024-02-23T04:32:26.145Z,0.65
2024-02-23T04:34:52.696Z,0.65
2024-02-23T04:37:19.269Z,0.55
2024-02-23T04:39:45.848Z,0.50
2024-02-23T04:42:12.398Z,0.77
2024-02-23T04:44:38.987Z,0.57
2024-02-23T04:47:06.038Z,0.63
2024-02-23T04:49:32.617Z,0.55
2024-02-23T04:51:59.370Z,0.60
2024-02-23T04:54:26.114Z,0.63
2024-02-23T04:56:52.590Z,0.60
2024-02-23T04:59:19.217Z,0.50
2024-02-23T05:01:45.691Z,0.57
2024-02-23T05:04:12.163Z,0.68
2024-02-23T05:06:38.779Z,0.60
2024-02-23T05:09:06.744Z,0.57
2024-02-23T05:11:33.333Z,0.50
2024-02-23T05:13:59.918Z,0.65
2024-02-23T05:16:26.441Z,0.63
2024-02-23T05:18:53.405Z,0.60
2024-02-23T05:21:19.932Z,1.10
2024-02-23T05:23:47.535Z,29.20
2024-02-23T05:26:14.272Z,490.02
2024-02-23T05:28:40.845Z,519.10
2024-02-23T05:31:07.380Z,374.55
2024-02-23T05:33:33.857Z,351.85
2024-02-23T05:36:00.338Z,334.08
2024-02-23T05:38:26.899Z,317.98
2024-02-23T05:40:53.414Z,304.67
2024-02-23T05:43:19.936Z,298.08
2024-02-23T05:45:46.600Z,300.77
2024-02-23T05:48:13.204Z,292.80
2024-02-23T05:50:40.027Z,291.73
2024-02-23T05:53:06.927Z,288.85
2024-02-23T05:55:33.498Z,271.38
2024-02-23T05:58:00.219Z,250.40
2024-02-23T06:00:26.805Z,245.52
2024-02-23T06:02:53.279Z,239.50
2024-02-23T06:05:19.831Z,236.18
2024-02-23T06:07:46.426Z,235.27
2024-02-23T06:10:12.986Z,226.10
2024-02-23T06:12:39.684Z,218.82
2024-02-23T06:15:07.277Z,204.82
2024-02-23T06:17:33.803Z,163.38
2024-02-23T06:20:00.779Z,157.55
2024-02-23T06:22:27.374Z,168.57
2024-02-23T06:24:53.930Z,169.57
2024-02-23T06:27:20.453Z,166.63
2024-02-23T06:29:46.904Z,158.13
2024-02-23T06:32:13.430Z,160.40
2024-02-23T06:34:39.911Z,160.45
2024-02-23T06:37:06.611Z,154.98
2024-02-23T06:39:33.258Z,151.90
2024-02-23T06:42:01.779Z,150.23
2024-02-23T06:44:28.400Z,146.07
2024-02-23T06:46:54.971Z,144.05
2024-02-23T06:49:21.626Z,142.88
2024-02-23T06:51:48.110Z,138.55
2024-02-23T06:54:14.952Z,135.85
2024-02-23T06:56:41.410Z,135.73
2024-02-23T06:59:07.964Z,132.60
2024-02-23T07:01:39.186Z,127.72
2024-02-23T07:04:07.497Z,125.75
2024-02-23T07:06:35.304Z,86.57
2024-02-23T07:09:01.824Z,88.43
2024-02-23T07:11:28.868Z,82.75
2024-02-23T07:13:55.401Z,92.63
2024-02-23T07:16:23.153Z,93.55
2024-02-23T07:18:49.722Z,86.13
2024-02-23T07:21:18.963Z,80.22
2024-02-23T07:23:45.551Z,77.78
2024-02-23T07:26:12.043Z,79.82
2024-02-23T07:28:38.565Z,77.30
2024-02-23T07:31:05.190Z,73.82
2024-02-23T07:33:31.755Z,73.40
2024-02-23T07:35:59.858Z,72.13
2024-02-23T07:38:26.397Z,69.68
2024-02-23T07:40:52.970Z,66.78
2024-02-23T07:43:19.736Z,65.40
2024-02-23T07:45:46.248Z,63.05
2024-02-23T07:48:12.902Z,62.30
2024-02-23T07:50:39.648Z,61.63
2024-02-23T07:53:06.331Z,61.35
2024-02-23T07:55:33.902Z,59.25
2024-02-23T07:58:02.856Z,57.60
2024-02-23T08:00:29.622Z,55.35
2024-02-23T08:03:00.272Z,55.85
2024-02-23T08:05:26.865Z,53.30
2024-02-23T08:07:53.590Z,51.20
2024-02-23T08:10:20.265Z,49.17
2024-02-23T08:12:46.808Z,49.22
2024-02-23T08:15:13.403Z,48.30
2024-02-23T08:17:40.018Z,46.33
2024-02-23T08:20:07.184Z,44.88
2024-02-23T08:22:33.696Z,44.53
2024-02-23T08:25:00.241Z,44.10
2024-02-23T08:27:26.924Z,42.90
2024-02-23T08:29:53.391Z,42.00
2024-02-23T08:32:20.117Z,41.63
2024-02-23T08:34:46.797Z,40.05
2024-02-23T08:37:13.401Z,39.70
2024-02-23T08:39:40.103Z,38.53
2024-02-23T08:42:06.533Z,38.45
2024-02-23T08:44:33.143Z,35.83
2024-02-23T08:46:59.683Z,35.40
2024-02-23T08:49:26.302Z,32.33
2024-02-23T08:51:52.798Z,31.60
2024-02-23T08:54:19.714Z,33.35
2024-02-23T08:56:46.330Z,30.40
2024-02-23T08:59:13.246Z,30.40
2024-02-23T09:01:39.734Z,29.80
2024-02-23T09:04:06.332Z,30.00
2024-02-23T09:06:37.761Z,29.27
2024-02-23T09:09:06.254Z,27.35
2024-02-23T09:11:32.827Z,26.52
2024-02-23T09:13:59.427Z,25.98
2024-02-23T09:16:25.892Z,27.02
2024-02-23T09:18:52.413Z,25.33
2024-02-23T09:21:20.083Z,25.33
2024-02-23T09:23:46.837Z,24.67
2024-02-23T09:26:13.534Z,24.98
2024-02-23T09:28:42.602Z,23.33
2024-02-23T09:31:09.218Z,23.35
2024-02-23T09:33:35.830Z,23.13
2024-02-23T09:36:02.405Z,23.00
2024-02-23T09:38:29.499Z,22.10
2024-02-23T09:40:56.135Z,21.33
2024-02-23T09:43:26.110Z,21.67
2024-02-23T09:45:53.951Z,20.83
2024-02-23T09:48:22.293Z,20.70
2024-02-23T09:50:49.373Z,21.08
2024-02-23T09:53:16.520Z,19.85
2024-02-23T09:55:44.574Z,20.50
2024-02-23T09:58:14.040Z,19.83
2024-02-23T10:00:40.880Z,19.38
2024-02-23T10:03:07.635Z,19.27
2024-02-23T10:05:37.021Z,18.60
2024-02-23T10:08:06.148Z,18.67
2024-02-23T10:10:38.611Z,18.52
2024-02-23T10:13:06.212Z,17.67
2024-02-23T10:15:32.752Z,18.00
2024-02-23T10:17:59.994Z,16.65
2024-02-23T10:20:26.736Z,16.65
2024-02-23T10:22:54.998Z,15.98
2024-02-23T10:25:21.984Z,15.98
2024-02-23T10:27:48.505Z,15.85
2024-02-23T10:30:16.512Z,15.95
2024-02-23T10:32:43.548Z,16.20
2024-02-23T10:35:17.450Z,15.10
2024-02-23T10:37:45.884Z,14.27
2024-02-23T10:40:13.737Z,14.48
2024-02-23T10:42:43.009Z,14.80
2024-02-23T10:45:10.047Z,13.65
2024-02-23T10:47:38.064Z,14.20
2024-02-23T10:50:06.005Z,15.07
2024-02-23T10:52:33.141Z,13.85
2024-02-23T10:55:01.488Z,13.32
2024-02-23T10:57:28.460Z,14.15
2024-02-23T10:59:55.671Z,12.50
2024-02-23T11:02:24.938Z,12.23
2024-02-23T11:04:52.117Z,12.82
2024-02-23T11:07:22.257Z,13.07
2024-02-23T11:09:59.223Z,11.65
2024-02-23T11:12:30.969Z,13.43
2024-02-23T11:14:59.889Z,11.70
2024-02-23T11:17:29.231Z,11.75
2024-02-23T11:19:57.151Z,9.85
2024-02-23T11:22:38.431Z,10.48
2024-02-23T11:25:07.700Z,10.20
2024-02-23T11:27:35.128Z,11.20
2024-02-23T11:30:11.277Z,10.43
2024-02-23T11:32:43.142Z,10.20
2024-02-23T11:35:11.935Z,8.82
2024-02-23T11:37:47.476Z,9.30
2024-02-23T11:40:14.786Z,9.57
2024-02-23T11:42:44.328Z,9.18
2024-02-23T11:45:11.905Z,9.15
2024-02-23T11:47:39.705Z,9.00
2024-02-23T11:50:10.873Z,8.50
2024-02-23T11:52:40.438Z,8.15
2024-02-23T11:55:07.980Z,8.55
2024-02-23T11:57:42.864Z,7.88
2024-02-23T12:00:14.615Z,7.60
2024-02-23T12:02:41.460Z,7.07
2024-02-23T12:05:08.795Z,6.22
2024-02-23T12:07:35.984Z,6.93
2024-02-23T12:10:05.320Z,6.40
2024-02-23T12:12:32.082Z,6.18
2024-02-23T12:15:00.250Z,5.50
2024-02-23T12:17:28.357Z,6.25
2024-02-23T12:20:04.052Z,5.43
2024-02-23T12:22:30.761Z,5.40
2024-02-23T12:25:01.035Z,5.38
2024-02-23T12:27:27.990Z,5.45
2024-02-23T12:29:55.522Z,5.32
2024-02-23T12:32:22.812Z,5.07
2024-02-23T12:34:50.009Z,4.82
2024-02-23T12:37:18.228Z,5.00
2024-02-23T12:39:45.311Z,4.50
2024-02-23T12:42:11.885Z,4.90
2024-02-23T12:44:38.492Z,4.50
2024-02-23T12:47:05.445Z,4.72
2024-02-23T12:49:32.229Z,4.50
2024-02-23T12:51:58.710Z,4.70
2024-02-23T12:54:25.191Z,4.65
2024-02-23T12:56:51.661Z,4.95
2024-02-23T12:59:19.100Z,4.00
2024-02-23T13:01:47.228Z,4.35
2024-02-23T13:04:15.262Z,4.40
2024-02-23T13:06:42.129Z,4.30
2024-02-23T13:09:10.177Z,4.10
2024-02-23T13:11:39.512Z,4.32
2024-02-23T13:14:06.113Z,3.67
2024-02-23T13:16:32.757Z,4.45
2024-02-23T13:18:59.246Z,3.58
2024-02-23T13:21:25.849Z,3.90
2024-02-23T13:23:52.336Z,4.20
2024-02-23T13:26:18.827Z,3.50
2024-02-23T13:28:45.623Z,3.42
2024-02-23T13:31:13.051Z,3.30
2024-02-23T13:33:39.816Z,3.90
2024-02-23T13:36:06.860Z,2.83
2024-02-23T13:38:39.163Z,3.08
2024-02-23T13:41:06.954Z,3.47
2024-02-23T13:43:34.745Z,6.10
2024-02-23T13:46:01.632Z,14.38
2024-02-23T13:48:28.369Z,14.95
2024-02-23T13:50:55.058Z,27.38
2024-02-23T13:53:21.768Z,27.33
2024-02-23T13:55:48.984Z,29.83
2024-02-23T13:58:15.643Z,28.52
2024-02-23T14:00:42.326Z,28.50
2024-02-23T14:03:09.514Z,29.05
2024-02-23T14:05:36.420Z,30.77
2024-02-23T14:08:06.690Z,27.67
2024-02-23T14:10:34.647Z,26.27
2024-02-23T14:13:01.717Z,26.45
2024-02-23T14:15:28.356Z,26.88
2024-02-23T14:17:55.013Z,26.92
2024-02-23T14:20:21.626Z,24.85
2024-02-23T14:22:48.454Z,23.85
2024-02-23T14:25:14.994Z,24.83
2024-02-23T14:27:41.570Z,23.73
2024-02-23T14:30:09.595Z,23.42
2024-02-23T14:32:36.531Z,23.50
2024-02-23T14:35:04.970Z,21.73
2024-02-23T14:37:31.716Z,20.48
2024-02-23T14:39:58.212Z,19.77
2024-02-23T14:42:24.759Z,18.33
2024-02-23T14:44:51.342Z,20.15
2024-02-23T14:47:18.487Z,17.52
2024-02-23T14:49:46.901Z,18.15
2024-02-23T14:52:15.601Z,17.67
2024-02-23T14:54:42.476Z,17.90
2024-02-23T14:57:09.047Z,16.67
2024-02-23T14:59:42.627Z,17.05
2024-02-23T15:02:10.541Z,16.45
2024-02-23T15:04:37.079Z,15.20
2024-02-23T15:07:03.761Z,15.40
2024-02-23T15:09:30.297Z,15.23
2024-02-23T15:11:56.918Z,15.15
2024-02-23T15:14:23.492Z,14.50
2024-02-23T15:16:49.976Z,12.85
2024-02-23T15:19:16.619Z,13.00
2024-02-23T15:21:43.677Z,13.93
2024-02-23T15:24:10.661Z,12.13
2024-02-23T15:26:37.325Z,12.48
2024-02-23T15:29:04.522Z,11.45
2024-02-23T15:31:31.757Z,11.95
2024-02-23T15:33:59.380Z,11.10
2024-02-23T15:36:25.976Z,10.32
2024-02-23T15:38:54.083Z,11.57
2024-02-23T15:41:20.718Z,10.00
2024-02-23T15:43:47.194Z,9.93
2024-02-23T15:46:13.681Z,9.85
2024-02-23T15:48:40.344Z,9.68
2024-02-23T15:51:15.545Z,9.85
2024-02-23T15:53:50.829Z,9.20
2024-02-23T15:56:17.447Z,8.77
2024-02-23T15:58:43.939Z,8.27
2024-02-23T16:01:10.632Z,8.80
2024-02-23T16:03:37.176Z,8.52
2024-02-23T16:06:04.078Z,8.45
2024-02-23T16:08:47.578Z,7.68
2024-02-23T16:11:16.217Z,7.28
2024-02-23T16:13:43.305Z,7.15
2024-02-23T16:16:11.749Z,6.85
2024-02-23T16:18:39.231Z,7.35
2024-02-23T16:21:06.013Z,7.22
2024-02-23T16:23:32.612Z,6.80
2024-02-23T16:25:59.205Z,6.43
2024-02-23T16:28:25.762Z,6.78
2024-02-23T16:30:52.259Z,6.60
2024-02-23T16:33:18.939Z,6.18
2024-02-23T16:35:45.633Z,6.10
2024-02-23T16:38:12.385Z,5.95
2024-02-23T16:40:40.401Z,5.63
2024-02-23T16:43:06.869Z,6.30
2024-02-23T16:45:33.488Z,5.53
2024-02-23T16:48:02.268Z,5.70
2024-02-23T16:50:29.061Z,5.20
2024-02-23T16:52:55.708Z,5.50
2024-02-23T16:55:22.741Z,5.57
2024-02-23T16:57:49.228Z,5.53
2024-02-23T17:00:16.136Z,5.28
2024-02-23T17:02:42.652Z,5.13
2024-02-23T17:05:09.460Z,5.60
2024-02-23T17:07:36.762Z,16.58
2024-02-23T17:10:03.350Z,92.80
2024-02-23T17:12:29.889Z,200.75
2024-02-23T17:14:56.403Z,270.52
2024-02-23T17:17:22.954Z,288.83
2024-02-23T17:19:49.525Z,280.20
2024-02-23T17:22:16.268Z,338.50
2024-02-23T17:24:42.802Z,378.23
2024-02-23T17:27:10.001Z,412.67
2024-02-23T17:29:36.600Z,435.52
2024-02-23T17:32:03.217Z,429.10
2024-02-23T17:34:29.730Z,420.27
2024-02-23T17:36:56.173Z,415.60
2024-02-23T17:39:24.460Z,413.20
2024-02-23T17:41:51.059Z,405.90
2024-02-23T17:44:18.980Z,397.73
2024-02-23T17:46:48.920Z,384.35
2024-02-23T17:49:16.391Z,382.30
2024-02-23T17:51:43.446Z,383.67
2024-02-23T17:54:10.043Z,375.60
2024-02-23T17:56:36.694Z,368.60
2024-02-23T17:59:04.207Z,362.02
2024-02-23T18:01:30.966Z,360.75
2024-02-23T18:03:57.605Z,354.10
2024-02-23T18:06:25.023Z,331.70
2024-02-23T18:08:52.206Z,308.67
2024-02-23T18:11:20.972Z,302.70
2024-02-23T18:13:48.478Z,288.00
2024-02-23T18:16:19.334Z,285.75
2024-02-23T18:18:46.844Z,285.13
2024-02-23T18:21:17.401Z,279.13
2024-02-23T18:23:45.018Z,282.75
2024-02-23T18:26:13.573Z,274.85
2024-02-23T18:28:40.173Z,269.67
2024-02-23T18:31:06.649Z,266.23
2024-02-23T18:33:33.344Z,262.42
2024-02-23T18:35:59.856Z,251.48
2024-02-23T18:38:26.561Z,246.18
2024-02-23T18:40:53.068Z,238.88
2024-02-23T18:43:19.562Z,231.35
2024-02-23T18:45:46.062Z,229.30
2024-02-23T18:48:12.652Z,228.70
2024-02-23T18:50:39.421Z,218.15
2024-02-23T18:53:06.542Z,211.98
2024-02-23T18:55:38.567Z,206.35
2024-02-23T18:58:06.851Z,198.77
2024-02-23T19:00:33.427Z,194.70
2024-02-23T19:02:59.981Z,192.68
2024-02-23T19:05:26.808Z,180.60
2024-02-23T19:07:53.328Z,175.95
2024-02-23T19:10:19.919Z,175.77
2024-02-23T19:12:46.688Z,161.27
2024-02-23T19:15:13.484Z,160.80
2024-02-23T19:17:42.061Z,166.73
2024-02-23T19:20:10.667Z,159.52
2024-02-23T19:22:38.650Z,156.93
2024-02-23T19:25:14.044Z,153.18
2024-02-23T19:27:41.213Z,150.70
2024-02-23T19:30:12.212Z,149.50
2024-02-23T19:32:39.058Z,144.98
2024-02-23T19:35:06.010Z,140.90
2024-02-23T19:37:32.828Z,137.20
2024-02-23T19:39:59.363Z,138.15
2024-02-23T19:42:25.897Z,134.32
2024-02-23T19:44:52.386Z,130.52
2024-02-23T19:47:19.053Z,128.30
2024-02-23T19:49:45.647Z,124.28
2024-02-23T19:52:14.849Z,123.15
2024-02-23T19:54:42.442Z,121.57
2024-02-23T19:57:09.011Z,116.18
2024-02-23T19:59:38.110Z,116.53
2024-02-23T20:02:09.758Z,112.28
2024-02-23T20:04:36.470Z,110.43
2024-02-23T20:07:04.460Z,109.03
2024-02-23T20:09:31.561Z,104.68
2024-02-23T20:11:58.258Z,102.72
2024-02-23T20:14:24.973Z,100.25
2024-02-23T20:16:51.518Z,99.68
2024-02-23T20:19:18.084Z,95.63
2024-02-23T20:21:44.664Z,95.28
2024-02-23T20:24:11.281Z,91.07
2024-02-23T20:26:37.959Z,86.47
2024-02-23T20:29:04.538Z,86.00
2024-02-23T20:31:31.042Z,86.65
2024-02-23T20:33:58.785Z,83.07
2024-02-23T20:36:25.533Z,83.35
2024-02-23T20:38:52.219Z,77.15
2024-02-23T20:41:19.912Z,80.15
2024-02-23T20:43:46.412Z,75.75
2024-02-23T20:46:12.916Z,73.45
2024-02-23T20:48:39.574Z,71.72
2024-02-23T20:51:08.866Z,69.90
2024-02-23T20:53:35.517Z,71.18
2024-02-23T20:56:02.238Z,67.85
2024-02-23T20:58:28.852Z,66.80
2024-02-23T21:00:57.176Z,62.33
2024-02-23T21:03:25.888Z,61.88
2024-02-23T21:05:52.420Z,57.42
2024-02-23T21:08:18.990Z,60.13
2024-02-23T21:10:45.661Z,57.83
2024-02-23T21:13:12.136Z,56.90
2024-02-23T21:15:39.308Z,54.72
2024-02-23T21:18:06.307Z,51.95
2024-02-23T21:20:32.955Z,53.25
2024-02-23T21:22:59.494Z,53.75
2024-02-23T21:25:25.996Z,50.85
2024-02-23T21:27:52.514Z,49.15
2024-02-23T21:30:19.043Z,48.30
2024-02-23T21:32:45.616Z,47.58
2024-02-23T21:35:12.179Z,45.90
2024-02-23T21:37:38.712Z,46.15
2024-02-23T21:40:07.039Z,43.75
2024-02-23T21:42:33.672Z,45.00
2024-02-23T21:45:00.170Z,41.78
2024-02-23T21:47:26.744Z,41.42
2024-02-23T21:49:53.310Z,40.55
2024-02-23T21:52:19.770Z,40.10
2024-02-23T21:54:46.399Z,39.13
2024-02-23T21:57:13.073Z,37.85
2024-02-23T21:59:39.620Z,37.95
2024-02-23T22:02:06.897Z,37.20
2024-02-23T22:04:34.708Z,36.85
2024-02-23T22:07:01.291Z,37.17
2024-02-23T22:09:27.791Z,35.22
2024-02-23T22:11:54.689Z,34.67
2024-02-23T22:14:21.297Z,34.35
2024-02-23T22:16:47.821Z,33.92
2024-02-23T22:19:14.397Z,31.67
2024-02-23T22:21:40.911Z,32.72
2024-02-23T22:24:07.687Z,31.55
2024-02-23T22:26:36.658Z,30.13
2024-02-23T22:29:03.517Z,30.33
2024-02-23T22:31:29.973Z,28.55
2024-02-23T22:33:56.747Z,28.27
2024-02-23T22:36:23.407Z,27.95
2024-02-23T22:38:49.991Z,29.27
2024-02-23T22:41:16.601Z,27.85
2024-02-23T22:43:43.116Z,25.40
2024-02-23T22:46:09.691Z,25.77
2024-02-23T22:48:37.061Z,25.50
2024-02-23T22:51:03.644Z,25.73
2024-02-23T22:53:32.093Z,25.10
2024-02-23T22:55:59.988Z,22.92
2024-02-23T22:58:26.514Z,23.52
2024-02-23T23:00:53.004Z,23.75
2024-02-23T23:03:19.536Z,21.33
2024-02-23T23:05:46.172Z,23.73
2024-02-23T23:08:12.878Z,20.20
2024-02-23T23:10:39.527Z,22.00
2024-02-23T23:13:06.005Z,20.83
2024-02-23T23:15:32.461Z,21.17
2024-02-23T23:17:59.088Z,19.88
2024-02-23T23:20:25.798Z,18.52
2024-02-23T23:22:52.315Z,18.58
2024-02-23T23:25:18.814Z,18.73
2024-02-23T23:27:45.267Z,16.65
2024-02-23T23:30:12.582Z,16.83
2024-02-23T23:32:41.285Z,17.45
2024-02-23T23:35:08.375Z,16.08
2024-02-23T23:37:34.866Z,16.25
2024-02-23T23:40:01.439Z,16.27
2024-02-23T23:42:27.881Z,16.13
2024-02-23T23:44:54.476Z,15.15
2024-02-23T23:47:21.064Z,15.50
2024-02-23T23:49:47.560Z,14.52
2024-02-23T23:52:14.653Z,13.93
2024-02-23T23:54:41.175Z,13.93
2024-02-23T23:57:07.662Z,14.55
2024-02-23T23:59:34.102Z,12.77
